San Francisco, California
Traffic Map
Current Weather Conditions
San Francisco, California
Few Clouds
Few Clouds
13°
Feels Like: 13°
Wind Chill: 13° Ceiling: Unl
Heat Index: 13° Visibility: 9mi
Dew Point: 12° Wind: 3mph
Humidity: 90% Direction: 200° (SSW)
Pressure: 30.12in Gusts: 0mph
Raw Report DataKSFO 221356Z 20003KT 9SM FEW200 13/12 A3012 RMK AO2 SLP199 T01330117
Traffic Incident Summary
Active as of:
Severity:
Category:
InformationThere was an issue retrieving the traffic information for this location. Please try a different location or try again shortly.
Advertisements